Time;durP1;ratioP1;P1;durP2;ratioP2;P2;SDS_P1;SDS_P2;PMS_P1;PMS_P2;Temp;Humidity;BMP_temperature;BMP_pressure;BME280_temperature;BME280_humidity;BME280_pressure;Samples;Min_cycle;Max_cycle;Signal;HPM_P1;HPM_P2
2023/09/11 00:00:14;;;;;;;;;;;;;;;22.92;81.42;101331.81;5048642;28;1155;-79
2023/09/11 00:02:39;;;;;;;;;;;;;;;22.90;81.44;101325.91;5030039;28;1252;-80
2023/09/11 00:05:05;;;;;;;;;;;;;;;22.89;81.52;101332.22;5035303;28;1079;-79
2023/09/11 00:07:30;;;;;;;;;;;;;;;22.89;81.45;101318.97;5031676;28;1340;-79
2023/09/11 00:09:55;;;;;;;;;;;;;;;22.85;81.62;101321.16;5036166;28;1208;-79
2023/09/11 00:12:20;;;;;;;;;;;;;;;22.83;81.65;101317.09;5030562;28;2008;-79
2023/09/11 00:14:45;;;;;;;;;;;;;;;22.80;81.54;101319.09;5034377;28;920;-79
2023/09/11 00:17:11;;;;;;;;;;;;;;;22.78;81.67;101310.53;5033003;28;1574;-79
2023/09/11 00:19:36;;;;;;;;;;;;;;;22.76;81.71;101312.53;5034679;28;1086;-79
2023/09/11 00:22:02;;;;;;;;;;;;;;;22.76;81.74;101307.25;5039334;28;1296;-79
2023/09/11 00:24:27;;;;;;;;;;;;;;;22.74;81.75;101314.56;5030937;28;1224;-79
2023/09/11 00:26:52;;;;;;;;;;;;;;;22.71;81.70;101308.84;5026515;28;1272;-79
2023/09/11 00:29:18;;;;;;;;;;;;;;;22.69;81.85;101316.97;5030389;28;1265;-79
2023/09/11 00:31:43;;;;;;;;;;;;;;;22.69;81.76;101311.69;5025421;28;1938;-80
2023/09/11 00:34:08;;;;;;;;;;;;;;;22.65;81.85;101305.16;5023669;28;1524;-79
2023/09/11 00:36:33;;;;;;;;;;;;;;;22.65;81.83;101299.88;5026974;28;1519;-79
2023/09/11 00:38:58;;;;;;;;;;;;;;;22.63;81.82;101296.59;5035832;28;1233;-79
2023/09/11 00:41:24;;;;;;;;;;;;;;;22.60;82.04;101291.72;5023987;28;1340;-79
2023/09/11 00:43:49;;;;;;;;;;;;;;;22.57;82.11;101297.38;5017850;28;970;-79
2023/09/11 00:46:14;;;;;;;;;;;;;;;22.51;82.41;101287.56;5028181;28;1317;-79
2023/09/11 00:48:39;;;;;;;;;;;;;;;22.48;82.40;101294.06;5023061;28;1012;-79
2023/09/11 00:51:05;;;;;;;;;;;;;;;22.48;82.39;101293.22;5030189;28;1890;-79
2023/09/11 00:53:31;;;;;;;;;;;;;;;22.46;82.37;101290.78;5032569;28;1344;-79
2023/09/11 00:55:56;;;;;;;;;;;;;;;22.45;82.48;101283.84;5034800;28;1218;-79
2023/09/11 00:58:21;;;;;;;;;;;;;;;22.42;82.46;101288.69;5046410;28;1089;-79
2023/09/11 01:00:48;;;;;;;;;;;;;;;22.41;82.49;101287.06;5032414;28;1383;-79
2023/09/11 01:03:13;;;;;;;;;;;;;;;22.37;82.71;101285.84;5040383;28;1217;-80
2023/09/11 01:05:38;;;;;;;;;;;;;;;22.35;82.62;101277.25;5035673;28;1603;-79
2023/09/11 01:08:04;;;;;;;;;;;;;;;22.31;82.89;101287.41;5045516;28;1243;-79
2023/09/11 01:10:29;;;;;;;;;;;;;;;22.30;82.98;101280.47;5038968;28;1889;-79
2023/09/11 01:12:55;;;;;;;;;;;;;;;22.29;83.05;101284.13;5041234;28;1629;-79
2023/09/11 01:15:20;;;;;;;;;;;;;;;22.26;83.00;101285.34;5037057;28;1221;-80
2023/09/11 01:17:45;;;;;;;;;;;;;;;22.25;82.95;101278.44;5057423;28;1268;-79
2023/09/11 01:20:14;;;;;;;;;;;;;;;22.23;83.33;101276.97;5038386;28;1248;-79
2023/09/11 01:22:52;;;;;;;;;;;;;;;22.19;83.25;101279.19;5034930;28;1299;-79
2023/09/11 01:25:27;;;;;;;;;;;;;;;22.17;83.28;101281.19;5029641;28;1248;-79
2023/09/11 01:28:07;;;;;;;;;;;;;;;22.14;83.40;101271.03;5035611;28;1176;-79
2023/09/11 01:30:33;;;;;;;;;;;;;;;22.12;83.53;101275.66;5028680;28;1906;-79
2023/09/11 01:32:58;;;;;;;;;;;;;;;22.07;83.58;101275.38;5026514;28;1203;-80
2023/09/11 01:35:24;;;;;;;;;;;;;;;22.02;83.75;101283.03;5030104;28;1256;-79
2023/09/11 01:37:49;;;;;;;;;;;;;;;21.99;83.82;101278.16;5031917;28;1285;-79
2023/09/11 01:40:14;;;;;;;;;;;;;;;21.99;83.75;101272.88;5028354;28;1276;-79
2023/09/11 01:42:44;;;;;;;;;;;;;;;22.00;83.88;101274.50;5033117;28;1014;-80
2023/09/11 01:45:13;;;;;;;;;;;;;;;21.98;83.95;101277.34;5044598;28;1244;-79
2023/09/11 01:47:38;;;;;;;;;;;;;;;21.97;83.85;101274.91;5034024;28;1374;-79
2023/09/11 01:50:04;;;;;;;;;;;;;;;21.94;83.96;101277.91;5027803;28;1221;-79
2023/09/11 01:52:31;;;;;;;;;;;;;;;21.92;84.05;101277.28;5046182;28;1907;-80
2023/09/11 01:54:56;;;;;;;;;;;;;;;21.90;84.15;101276.63;5027874;28;1280;-79
2023/09/11 01:57:24;;;;;;;;;;;;;;;21.90;84.36;101274.81;5019888;28;1180;-80
2023/09/11 01:59:50;;;;;;;;;;;;;;;21.89;84.29;101275.00;5032239;28;1328;-79
2023/09/11 02:02:15;;;;;;;;;;;;;;;21.90;84.16;101284.56;5041280;28;1100;-79
2023/09/11 02:04:40;;;;;;;;;;;;;;;21.88;84.34;101271.56;5033168;28;1212;-79
2023/09/11 02:07:05;;;;;;;;;;;;;;;21.87;84.29;101274.38;5038217;28;1232;-79
2023/09/11 02:09:30;;;;;;;;;;;;;;;21.86;84.30;101272.75;5050834;28;1668;-79
2023/09/11 02:11:56;;;;;;;;;;;;;;;21.84;84.51;101270.28;5052975;28;1894;-79
2023/09/11 02:14:21;;;;;;;;;;;;;;;21.80;84.57;101273.50;5034690;28;1140;-79
2023/09/11 02:16:46;;;;;;;;;;;;;;;21.78;84.68;101272.88;5032404;28;1466;-79
2023/09/11 02:19:11;;;;;;;;;;;;;;;21.76;84.73;101267.78;5030833;28;1043;-80
2023/09/11 02:21:37;;;;;;;;;;;;;;;21.74;84.61;101265.34;5033447;28;1573;-79
2023/09/11 02:24:04;;;;;;;;;;;;;;;21.73;84.86;101258.41;5036695;28;1102;-79
2023/09/11 02:26:30;;;;;;;;;;;;;;;21.71;84.83;101260.41;5038394;28;1636;-79
2023/09/11 02:28:59;;;;;;;;;;;;;;;21.69;84.77;101257.16;5034233;28;959;-79
2023/09/11 02:31:24;;;;;;;;;;;;;;;21.62;85.02;101261.56;5047921;28;1898;-79
2023/09/11 02:33:49;;;;;;;;;;;;;;;21.57;85.10;101257.84;5032006;28;1200;-79
2023/09/11 02:36:15;;;;;;;;;;;;;;;21.55;85.32;101260.66;5034426;28;1683;-79
2023/09/11 02:38:40;;;;;;;;;;;;;;;21.54;85.30;101259.00;5031624;28;1162;-79
2023/09/11 02:41:05;;;;;;;;;;;;;;;21.53;85.53;101257.38;5030518;28;1260;-79
2023/09/11 02:43:30;;;;;;;;;;;;;;;21.52;85.63;101257.56;5035414;28;1085;-79
2023/09/11 02:45:55;;;;;;;;;;;;;;;21.48;85.43;101250.00;5028388;28;1705;-79
2023/09/11 02:48:21;;;;;;;;;;;;;;;21.48;85.67;101249.19;5030765;28;1216;-79
2023/09/11 02:50:47;;;;;;;;;;;;;;;21.46;85.76;101249.41;5019462;28;1894;-80
2023/09/11 02:53:13;;;;;;;;;;;;;;;21.46;85.64;101245.94;5025622;28;1025;-80
2023/09/11 02:55:41;;;;;;;;;;;;;;;21.45;85.55;101245.13;5021480;28;1288;-80
2023/09/11 02:58:06;;;;;;;;;;;;;;;21.44;85.68;101237.38;5027534;28;1138;-80
2023/09/11 03:00:35;;;;;;;;;;;;;;;21.42;85.72;101239.41;5025294;28;1285;-80
2023/09/11 03:03:01;;;;;;;;;;;;;;;21.38;85.81;101243.41;5044957;28;1316;-79
2023/09/11 03:05:26;;;;;;;;;;;;;;;21.33;86.01;101240.50;5034048;28;1588;-80
2023/09/11 03:07:51;;;;;;;;;;;;;;;21.26;86.11;101234.31;5045216;28;1364;-80
2023/09/11 03:10:17;;;;;;;;;;;;;;;21.23;86.27;101239.97;5034465;28;1103;-81
2023/09/11 03:12:42;;;;;;;;;;;;;;;21.22;86.33;101231.22;5041142;28;1961;-80
2023/09/11 03:15:07;;;;;;;;;;;;;;;21.18;86.52;101222.84;5037747;28;935;-80
2023/09/11 03:17:33;;;;;;;;;;;;;;;21.16;86.81;101229.31;5035694;28;1272;-80
2023/09/11 03:19:58;;;;;;;;;;;;;;;21.14;86.93;101228.69;5030941;28;1232;-80
2023/09/11 03:22:23;;;;;;;;;;;;;;;21.13;86.91;101225.22;5034434;28;1198;-80
2023/09/11 03:24:49;;;;;;;;;;;;;;;21.12;86.79;101223.59;5038867;28;1149;-80
2023/09/11 03:27:14;;;;;;;;;;;;;;;21.11;86.91;101215.88;5029073;28;1005;-80
2023/09/11 03:29:39;;;;;;;;;;;;;;;21.10;86.74;101214.22;5036534;28;1358;-80
2023/09/11 03:32:05;;;;;;;;;;;;;;;21.08;86.77;101211.78;5034701;28;1976;-80
2023/09/11 03:34:30;;;;;;;;;;;;;;;21.03;86.83;101211.50;5033337;28;1279;-80
2023/09/11 03:36:55;;;;;;;;;;;;;;;20.99;86.93;101210.25;5029132;28;1061;-80
2023/09/11 03:39:20;;;;;;;;;;;;;;;20.96;87.17;101207.97;5031755;28;1254;-80
2023/09/11 03:41:46;;;;;;;;;;;;;;;20.93;87.25;101197.78;5032907;28;1096;-80
2023/09/11 03:44:11;;;;;;;;;;;;;;;20.90;87.53;101203.44;5031928;28;1153;-80
2023/09/11 03:46:36;;;;;;;;;;;;;;;20.88;87.31;101194.91;5027294;28;1161;-80
2023/09/11 03:49:01;;;;;;;;;;;;;;;20.81;87.58;101191.34;5025677;28;1487;-80
2023/09/11 03:51:27;;;;;;;;;;;;;;;20.78;87.70;101189.09;5031210;28;1904;-80
2023/09/11 03:53:52;;;;;;;;;;;;;;;20.77;87.74;101188.28;5022876;28;1554;-80
2023/09/11 03:56:17;;;;;;;;;;;;;;;20.77;87.75;101184.81;5027610;28;1161;-80
2023/09/11 03:58:44;;;;;;;;;;;;;;;20.76;87.66;101184.00;5025075;28;1598;-80
2023/09/11 04:01:09;;;;;;;;;;;;;;;20.75;87.84;101176.25;5021047;28;1216;-80
2023/09/11 04:03:34;;;;;;;;;;;;;;;20.74;87.46;101182.53;5023011;28;1534;-80
2023/09/11 04:05:59;;;;;;;;;;;;;;;20.73;87.92;101175.63;5034171;28;1513;-81
2023/09/11 04:08:25;;;;;;;;;;;;;;;20.70;87.52;101171.53;5035804;28;1104;-80
2023/09/11 04:10:50;;;;;;;;;;;;;;;20.65;87.69;101177.38;5041053;28;1894;-80
2023/09/11 04:13:15;;;;;;;;;;;;;;;20.63;87.63;101166.19;5042423;28;1068;-80
2023/09/11 04:15:40;;;;;;;;;;;;;;;20.58;87.97;101163.28;5038514;28;1167;-80
2023/09/11 04:18:06;;;;;;;;;;;;;;;20.53;88.29;101165.66;5042868;28;1369;-80
2023/09/11 04:20:33;;;;;;;;;;;;;;;20.47;88.32;101161.09;5029746;28;1479;-80
2023/09/11 04:22:59;;;;;;;;;;;;;;;20.41;88.37;101161.78;5031814;28;1700;-80
2023/09/11 04:25:24;;;;;;;;;;;;;;;20.35;88.82;101173.06;5039440;28;1558;-80
2023/09/11 04:27:49;;;;;;;;;;;;;;;20.29;89.12;101168.50;5039250;28;1309;-79
2023/09/11 04:30:17;;;;;;;;;;;;;;;20.25;89.11;101177.78;5039680;28;1356;-80
2023/09/11 04:32:42;;;;;;;;;;;;;;;20.23;89.36;101169.22;5043056;28;1876;-79
2023/09/11 04:35:08;;;;;;;;;;;;;;;20.18;89.18;101167.13;5037809;28;1358;-79
2023/09/11 04:37:33;;;;;;;;;;;;;;;20.20;89.79;101169.59;5032596;28;1325;-79
2023/09/11 04:39:59;;;;;;;;;;;;;;;20.16;89.33;101172.59;5032930;28;1109;-79
2023/09/11 04:42:24;;;;;;;;;;;;;;;20.09;89.64;101171.66;5035606;28;892;-79
2023/09/11 04:44:49;;;;;;;;;;;;;;;20.05;89.82;101162.47;5027265;28;1120;-80
2023/09/11 04:47:16;;;;;;;;;;;;;;;20.03;90.04;101169.75;5034970;28;1325;-79
2023/09/11 04:49:41;;;;;;;;;;;;;;;20.04;90.05;101155.59;5034699;28;1378;-79
2023/09/11 04:52:06;;;;;;;;;;;;;;;20.07;90.23;101160.50;5036537;28;1886;-79
2023/09/11 04:54:31;;;;;;;;;;;;;;;20.07;90.12;101171.03;5036096;28;1133;-79
2023/09/11 04:56:57;;;;;;;;;;;;;;;20.08;90.18;101162.13;5036451;28;1125;-79
2023/09/11 04:59:22;;;;;;;;;;;;;;;20.09;90.15;101163.78;5031762;28;1067;-78
2023/09/11 05:01:47;;;;;;;;;;;;;;;20.09;90.11;101163.78;5036727;28;1200;-80
2023/09/11 05:04:12;;;;;;;;;;;;;;;20.08;90.12;101153.41;5035314;28;1089;-79
2023/09/11 05:06:41;;;;;;;;;;;;;;;20.07;90.01;101157.88;5031522;28;1275;-79
2023/09/11 05:09:07;;;;;;;;;;;;;;;20.07;89.99;101155.25;5029634;28;1315;-78
2023/09/11 05:11:34;;;;;;;;;;;;;;;20.01;90.12;101155.94;5033369;28;1894;-79
2023/09/11 05:13:59;;;;;;;;;;;;;;;19.99;90.03;101157.94;5033163;28;1472;-79
2023/09/11 05:16:25;;;;;;;;;;;;;;;19.92;90.40;101162.28;5032096;28;1264;-78
2023/09/11 05:18:50;;;;;;;;;;;;;;;19.82;90.55;101159.06;5040850;28;1234;-79
2023/09/11 05:21:15;;;;;;;;;;;;;;;19.79;90.66;101157.63;5034814;28;1283;-79
2023/09/11 05:23:42;;;;;;;;;;;;;;;19.82;90.68;101156.44;5052009;28;1619;-78
2023/09/11 05:26:08;;;;;;;;;;;;;;;19.86;90.42;101163.00;5029731;28;1405;-79
2023/09/11 05:28:33;;;;;;;;;;;;;;;19.88;90.37;101161.00;5040613;28;1407;-79
2023/09/11 05:30:58;;;;;;;;;;;;;;;19.91;90.39;101165.91;5032282;28;1963;-79
2023/09/11 05:33:23;;;;;;;;;;;;;;;19.95;90.24;101161.09;5037862;28;1097;-79
2023/09/11 05:35:49;;;;;;;;;;;;;;;19.98;90.26;101166.84;5027509;28;1394;-80
2023/09/11 05:38:14;;;;;;;;;;;;;;;20.00;89.92;101164.00;5028072;28;1145;-78
2023/09/11 05:40:39;;;;;;;;;;;;;;;20.01;89.78;101166.47;5030981;28;1217;-78
2023/09/11 05:43:05;;;;;;;;;;;;;;;20.03;89.78;101169.75;5028907;28;1044;-79
2023/09/11 05:45:30;;;;;;;;;;;;;;;20.03;89.69;101175.03;5028874;28;1287;-79
2023/09/11 05:47:55;;;;;;;;;;;;;;;20.05;89.74;101170.38;5027920;28;1233;-78
2023/09/11 05:50:20;;;;;;;;;;;;;;;20.05;89.61;101175.66;5032978;28;1201;-79
2023/09/11 05:52:45;;;;;;;;;;;;;;;20.06;89.41;101185.19;5024454;28;1956;-79
2023/09/11 05:55:11;;;;;;;;;;;;;;;20.08;89.51;101183.22;5027271;28;1021;-80
2023/09/11 05:57:36;;;;;;;;;;;;;;;20.11;89.49;101193.38;5026670;28;1299;-79
2023/09/11 06:00:01;;;;;;;;;;;;;;;20.12;89.21;101188.91;5024018;28;1001;-79
2023/09/11 06:02:26;;;;;;;;;;;;;;;20.13;89.42;101191.38;5027867;28;1388;-79
2023/09/11 06:04:52;;;;;;;;;;;;;;;20.15;89.03;101194.66;5028915;28;1304;-79
2023/09/11 06:07:18;;;;;;;;;;;;;;;20.17;89.21;101184.75;5030769;28;1475;-79
2023/09/11 06:09:43;;;;;;;;;;;;;;;20.21;89.04;101184.41;5030129;28;1398;-79
2023/09/11 06:12:08;;;;;;;;;;;;;;;20.23;88.96;101191.13;5028075;28;1894;-79
2023/09/11 06:14:37;;;;;;;;;;;;;;;20.27;88.90;101186.31;5027625;28;1316;-79
2023/09/11 06:17:03;;;;;;;;;;;;;;;20.31;88.99;101192.88;5024281;28;1439;-79
2023/09/11 06:19:29;;;;;;;;;;;;;;;20.36;88.84;101193.16;5031612;28;1362;-79
2023/09/11 06:21:54;;;;;;;;;;;;;;;20.41;88.86;101196.88;5035966;28;1185;-79
2023/09/11 06:24:19;;;;;;;;;;;;;;;20.47;88.39;101195.34;5026691;28;1225;-80
2023/09/11 06:26:44;;;;;;;;;;;;;;;20.52;88.38;101194.81;5029454;28;1276;-80
2023/09/11 06:29:10;;;;;;;;;;;;;;;20.58;88.33;101200.16;5036242;28;1395;-80
2023/09/11 06:31:35;;;;;;;;;;;;;;;20.63;88.05;101197.81;5037783;28;1969;-80
2023/09/11 06:34:00;;;;;;;;;;;;;;;20.67;87.55;101196.44;5033791;28;1248;-80
2023/09/11 06:36:25;;;;;;;;;;;;;;;20.73;87.55;101202.81;5027083;28;1351;-80
2023/09/11 06:38:50;;;;;;;;;;;;;;;20.77;87.48;101192.72;5035225;28;1261;-79
2023/09/11 06:41:16;;;;;;;;;;;;;;;20.78;87.50;101189.09;5031082;28;1273;-80
2023/09/11 06:43:42;;;;;;;;;;;;;;;20.86;87.29;101196.88;5030136;28;1203;-80
2023/09/11 06:46:07;;;;;;;;;;;;;;;20.92;86.64;101201.44;5033421;28;1300;-81
2023/09/11 06:48:32;;;;;;;;;;;;;;;20.96;86.70;101202.69;5032173;28;1304;-80
2023/09/11 06:50:57;;;;;;;;;;;;;;;21.01;86.51;101210.88;5026435;28;1918;-79
2023/09/11 06:53:22;;;;;;;;;;;;;;;21.07;86.44;101210.16;5033538;28;1129;-79
2023/09/11 06:55:48;;;;;;;;;;;;;;;21.12;86.31;101202.50;5028858;28;1093;-80
2023/09/11 06:58:13;;;;;;;;;;;;;;;21.18;86.09;101207.03;5034279;28;1164;-80
2023/09/11 07:00:39;;;;;;;;;;;;;;;21.27;85.85;101209.53;5030455;28;1161;-79
2023/09/11 07:03:04;;;;;;;;;;;;;;;21.33;85.71;101198.28;5033392;28;1208;-79
2023/09/11 07:05:29;;;;;;;;;;;;;;;21.39;85.38;101197.53;5032456;28;1341;-80
2023/09/11 07:07:54;;;;;;;;;;;;;;;21.45;85.30;101197.63;5027652;28;1125;-79
2023/09/11 07:10:22;;;;;;;;;;;;;;;21.49;85.22;101208.59;5028696;28;1339;-80
2023/09/11 07:12:47;;;;;;;;;;;;;;;21.57;85.18;101216.41;5044903;28;1964;-80
2023/09/11 07:15:13;;;;;;;;;;;;;;;21.62;85.14;101208.75;5027729;28;1212;-80
2023/09/11 07:17:38;;;;;;;;;;;;;;;21.67;84.99;101211.63;5028532;28;1258;-79
2023/09/11 07:20:04;;;;;;;;;;;;;;;21.70;84.70;101205.97;5028927;28;1329;-80
2023/09/11 07:22:29;;;;;;;;;;;;;;;21.73;84.40;101202.13;5028120;28;1303;-80
2023/09/11 07:24:54;;;;;;;;;;;;;;;21.76;84.41;101203.59;5027350;28;1286;-79
2023/09/11 07:27:20;;;;;;;;;;;;;;;21.82;84.17;101197.56;5024899;28;1280;-80
2023/09/11 07:29:45;;;;;;;;;;;;;;;21.87;84.13;101200.44;5033491;28;1324;-80
2023/09/11 07:32:10;;;;;;;;;;;;;;;21.89;83.87;101198.41;5034558;28;1993;-80
2023/09/11 07:34:35;;;;;;;;;;;;;;;21.91;83.73;101191.97;5029876;28;988;-80
2023/09/11 07:37:01;;;;;;;;;;;;;;;21.99;83.69;101193.63;5030809;28;1628;-80
2023/09/11 07:39:26;;;;;;;;;;;;;;;22.08;83.38;101203.06;5032966;28;985;-79
2023/09/11 07:41:51;;;;;;;;;;;;;;;22.13;83.32;101195.38;5035066;28;1580;-80
2023/09/11 07:44:16;;;;;;;;;;;;;;;22.20;83.22;101201.56;5044179;28;1524;-80
2023/09/11 07:46:42;;;;;;;;;;;;;;;22.29;83.14;101206.69;5037215;28;1300;-79
2023/09/11 07:49:07;;;;;;;;;;;;;;;22.35;82.79;101213.84;5031691;28;1171;-80
2023/09/11 07:51:33;;;;;;;;;;;;;;;22.39;82.88;101220.38;5030508;28;1954;-79
2023/09/11 07:53:59;;;;;;;;;;;;;;;22.42;82.73;101214.69;5030720;28;1476;-80
2023/09/11 07:56:25;;;;;;;;;;;;;;;22.43;82.53;101221.63;5033421;28;1280;-80
2023/09/11 07:58:50;;;;;;;;;;;;;;;22.46;82.67;101219.41;5031060;28;1308;-79
2023/09/11 08:01:18;;;;;;;;;;;;;;;22.50;82.66;101215.38;5046819;28;1371;-80
2023/09/11 08:03:44;;;;;;;;;;;;;;;22.57;82.55;101220.69;5032011;28;1114;-79
2023/09/11 08:06:10;;;;;;;;;;;;;;;22.64;82.09;101221.53;5028876;28;1119;-79
2023/09/11 08:08:35;;;;;;;;;;;;;;;22.68;82.32;101221.97;5027837;28;1232;-79
2023/09/11 08:11:21;;;;;;;;;;;;;;;22.72;82.21;101226.69;5032617;28;1875;-79
2023/09/11 08:13:46;;;;;;;;;;;;;;;22.76;82.09;101235.84;5027465;28;1273;-80
2023/09/11 08:16:12;;;;;;;;;;;;;;;22.80;82.00;101234.44;5026932;28;1247;-80
2023/09/11 08:18:37;;;;;;;;;;;;;;;22.87;82.05;101234.50;5025796;28;1093;-79
2023/09/11 08:21:03;;;;;;;;;;;;;;;22.92;81.84;101240.03;5026999;28;1284;-80
2023/09/11 08:23:28;;;;;;;;;;;;;;;23.00;82.04;101239.06;5029296;28;1347;-81
2023/09/11 08:25:57;;;;;;;;;;;;;;;23.06;81.88;101238.28;5028170;28;1259;-80
2023/09/11 08:28:22;;;;;;;;;;;;;;;23.15;81.45;101237.06;5025049;28;1278;-81
2023/09/11 08:30:50;;;;;;;;;;;;;;;23.21;81.22;101231.00;5025418;28;1906;-80
2023/09/11 08:33:15;;;;;;;;;;;;;;;23.25;81.25;101223.47;5025779;28;1277;-80
2023/09/11 08:35:40;;;;;;;;;;;;;;;23.30;80.94;101229.81;5053239;28;1172;-80
2023/09/11 08:38:05;;;;;;;;;;;;;;;23.33;80.64;101234.69;5035055;28;1080;-80
2023/09/11 08:40:31;;;;;;;;;;;;;;;23.38;80.59;101235.94;5034185;28;1227;-80
2023/09/11 08:42:56;;;;;;;;;;;;;;;23.45;80.04;101236.75;5028004;28;1248;-80
2023/09/11 08:45:23;;;;;;;;;;;;;;;23.47;80.28;101234.75;5032240;28;1335;-80
2023/09/11 08:47:48;;;;;;;;;;;;;;;23.53;79.59;101244.53;5028619;28;1406;-80
2023/09/11 08:50:16;;;;;;;;;;;;;;;23.54;79.84;101230.28;5037682;28;1283;-80
2023/09/11 08:52:41;;;;;;;;;;;;;;;23.58;79.97;101236.81;5034321;28;1894;-81
2023/09/11 08:55:09;;;;;;;;;;;;;;;23.67;79.72;101229.50;5051808;28;1328;-80
2023/09/11 08:57:35;;;;;;;;;;;;;;;23.75;80.09;101238.09;5032222;28;1257;-80
2023/09/11 09:00:05;;;;;;;;;;;;;;;23.87;79.74;101233.00;5031497;28;1283;-80
2023/09/11 09:02:32;;;;;;;;;;;;;;;23.95;79.44;101237.28;5031375;28;1080;-80
2023/09/11 09:04:58;;;;;;;;;;;;;;;23.98;79.39;101236.91;5030764;28;1153;-80
2023/09/11 09:07:23;;;;;;;;;;;;;;;24.04;78.98;101236.06;5031846;28;1404;-80
2023/09/11 09:09:49;;;;;;;;;;;;;;;24.09;79.28;101241.59;5016839;28;1982;-80
2023/09/11 09:12:15;;;;;;;;;;;;;;;24.19;78.92;101244.63;5018765;28;1902;-81
2023/09/11 09:14:40;;;;;;;;;;;;;;;24.27;78.07;101236.47;5019393;28;1819;-80
2023/09/11 09:17:06;;;;;;;;;;;;;;;24.30;77.66;101241.34;5015498;28;2452;-80
2023/09/11 09:19:34;;;;;;;;;;;;;;;24.35;77.16;101236.28;5034617;28;2003;-80
2023/09/11 09:22:02;;;;;;;;;;;;;;;24.48;76.74;101237.28;5019561;28;1961;-79
2023/09/11 09:24:27;;;;;;;;;;;;;;;24.49;76.55;101234.44;5017640;28;1840;-80
2023/09/11 09:26:59;;;;;;;;;;;;;;;24.53;76.56;101240.13;5019330;28;1799;-80
2023/09/11 09:29:25;;;;;;;;;;;;;;;24.60;75.80;101240.91;5028356;28;1511;-80
2023/09/11 09:31:50;;;;;;;;;;;;;;;24.64;75.34;101235.00;5031672;28;1886;-80
2023/09/11 09:34:16;;;;;;;;;;;;;;;24.70;75.62;101238.66;5033059;28;1245;-79
2023/09/11 09:36:51;;;;;;;;;;;;;;;24.80;73.67;101233.75;5031181;28;1017;-80
2023/09/11 09:39:16;;;;;;;;;;;;;;;24.80;73.49;101236.38;5031387;28;1158;-80
2023/09/11 09:41:52;;;;;;;;;;;;;;;24.83;71.72;101240.44;5038177;28;1236;-79
2023/09/11 09:44:30;;;;;;;;;;;;;;;24.81;72.39;101238.00;5034955;28;1178;-80
2023/09/11 09:46:55;;;;;;;;;;;;;;;24.89;72.93;101235.16;5038951;28;1075;-80
2023/09/11 09:49:21;;;;;;;;;;;;;;;25.00;72.87;101240.81;5036730;28;1119;-80
2023/09/11 09:51:46;;;;;;;;;;;;;;;25.13;73.21;101235.50;5050076;28;1959;-80
2023/09/11 09:54:12;;;;;;;;;;;;;;;25.22;72.22;101239.50;5046061;28;1302;-80
2023/09/11 09:56:37;;;;;;;;;;;;;;;25.23;72.25;101243.78;5035095;28;1281;-80
2023/09/11 09:59:02;;;;;;;;;;;;;;;25.30;72.35;101231.31;5020477;28;1352;-80
2023/09/11 10:01:27;;;;;;;;;;;;;;;25.40;71.63;101237.00;5028800;28;1287;-80
2023/09/11 10:03:53;;;;;;;;;;;;;;;25.56;71.43;101237.50;5030503;28;1662;-80
2023/09/11 10:06:20;;;;;;;;;;;;;;;25.54;71.10;101231.59;5033278;28;1147;-80
2023/09/11 10:08:46;;;;;;;;;;;;;;;25.68;69.37;101238.44;5041905;28;1180;-80
2023/09/11 10:11:27;;;;;;;;;;;;;;;25.64;69.61;101237.25;5031014;28;1890;-79
2023/09/11 10:13:54;;;;;;;;;;;;;;;25.67;68.93;101227.00;5031755;28;1291;-80
2023/09/11 10:16:19;;;;;;;;;;;;;;;25.77;69.90;101234.53;5034662;28;1104;-80
2023/09/11 10:18:45;;;;;;;;;;;;;;;25.87;69.82;101232.22;5033544;28;1293;-80
2023/09/11 10:21:10;;;;;;;;;;;;;;;25.99;69.59;101234.97;5032359;28;1111;-80
2023/09/11 10:23:35;;;;;;;;;;;;;;;26.04;69.66;101242.31;5034268;28;979;-80
2023/09/11 10:26:03;;;;;;;;;;;;;;;26.10;68.55;101230.78;5035675;28;1176;-79
2023/09/11 10:28:33;;;;;;;;;;;;;;;26.08;69.43;101230.19;5034464;28;1262;-80
2023/09/11 10:31:10;;;;;;;;;;;;;;;26.15;69.33;101228.28;5035043;28;1975;-80
2023/09/11 10:33:37;;;;;;;;;;;;;;;26.23;67.77;101228.00;5027846;28;1735;-80
2023/09/11 10:36:13;;;;;;;;;;;;;;;26.29;68.17;101235.13;5023463;28;2221;-80
2023/09/11 10:38:39;;;;;;;;;;;;;;;26.37;68.22;101226.84;5021745;28;2089;-80
2023/09/11 10:41:05;;;;;;;;;;;;;;;26.46;67.33;101225.56;5020237;28;1829;-80
2023/09/11 10:43:30;;;;;;;;;;;;;;;26.56;67.78;101224.25;5022575;28;2084;-80
2023/09/11 10:45:56;;;;;;;;;;;;;;;26.64;67.07;101226.59;5022850;28;1794;-80
2023/09/11 10:48:31;;;;;;;;;;;;;;;26.70;66.89;101226.53;5033409;28;1268;-80
2023/09/11 10:50:57;;;;;;;;;;;;;;;26.80;67.11;101228.69;5031475;28;1957;-80
2023/09/11 10:53:29;;;;;;;;;;;;;;;26.90;66.54;101223.66;5021896;28;1256;-80
2023/09/11 10:55:57;;;;;;;;;;;;;;;26.93;65.83;101223.19;5029228;28;1207;-81
2023/09/11 10:58:22;;;;;;;;;;;;;;;26.96;64.78;101221.94;5036395;28;1116;-79
2023/09/11 11:00:51;;;;;;;;;;;;;;;27.02;63.85;101222.91;5027340;28;1192;-79
2023/09/11 11:03:17;;;;;;;;;;;;;;;27.03;63.15;101224.50;5028765;28;1184;-79
2023/09/11 11:05:43;;;;;;;;;;;;;;;27.15;63.04;101220.09;5040503;28;1301;-80
2023/09/11 11:08:08;;;;;;;;;;;;;;;27.17;62.54;101218.81;5038591;28;1041;-80
2023/09/11 11:10:33;;;;;;;;;;;;;;;27.18;63.94;101216.94;5029389;28;1323;-79
2023/09/11 11:13:08;;;;;;;;;;;;;;;27.27;63.76;101226.25;5029364;28;1886;-80
2023/09/11 11:15:34;;;;;;;;;;;;;;;27.33;63.44;101227.22;5029762;28;1492;-80
2023/09/11 11:18:25;;;;;;;;;;;;;;;27.38;62.02;101222.03;5034833;28;1095;-80
2023/09/11 11:20:59;;;;;;;;;;;;;;;27.44;63.65;101215.78;5026078;28;1296;-80
2023/09/11 11:23:26;;;;;;;;;;;;;;;27.53;62.76;101215.25;5033191;28;1158;-80
2023/09/11 11:25:51;;;;;;;;;;;;;;;27.59;62.67;101220.69;5034859;28;1005;-80
2023/09/11 11:28:17;;;;;;;;;;;;;;;27.68;62.92;101213.97;5031741;28;1228;-80
2023/09/11 11:30:47;;;;;;;;;;;;;;;27.78;62.42;101214.25;5033318;28;1914;-80
2023/09/11 11:33:14;;;;;;;;;;;;;;;27.90;62.29;101215.09;5030816;28;1018;-80
2023/09/11 11:35:41;;;;;;;;;;;;;;;28.00;62.02;101218.00;5048414;28;1312;-80
2023/09/11 11:38:06;;;;;;;;;;;;;;;28.07;61.57;101209.06;5036046;28;982;-80
2023/09/11 11:40:31;;;;;;;;;;;;;;;28.04;60.90;101219.16;5028958;28;1201;-80
2023/09/11 11:42:57;;;;;;;;;;;;;;;27.98;61.45;101206.72;5024554;28;1033;-80
2023/09/11 11:45:22;;;;;;;;;;;;;;;28.07;61.30;101217.06;5033299;28;1090;-80
2023/09/11 11:47:49;;;;;;;;;;;;;;;28.19;61.31;101212.53;5032435;28;978;-80
2023/09/11 11:50:14;;;;;;;;;;;;;;;28.28;60.18;101216.50;5028021;28;1145;-80
2023/09/11 11:52:43;;;;;;;;;;;;;;;28.19;59.62;101215.22;5023573;28;1943;-80
2023/09/11 11:55:21;;;;;;;;;;;;;;;28.18;59.78;101210.94;5039823;28;1260;-80
2023/09/11 11:57:53;;;;;;;;;;;;;;;28.15;59.21;101216.72;5028610;28;1073;-80
2023/09/11 12:00:19;;;;;;;;;;;;;;;28.08;59.44;101216.03;5024422;28;1450;-80
2023/09/11 12:02:45;;;;;;;;;;;;;;;28.09;59.08;101217.66;5030736;28;1260;-80
2023/09/11 12:05:11;;;;;;;;;;;;;;;28.15;58.35;101216.72;5028913;28;1455;-80
2023/09/11 12:07:36;;;;;;;;;;;;;;;28.04;58.40;101213.00;5036641;28;1066;-80
2023/09/11 12:10:01;;;;;;;;;;;;;;;28.11;59.33;101210.25;5032509;28;1091;-80
2023/09/11 12:12:27;;;;;;;;;;;;;;;28.20;58.72;101214.16;5028662;28;2042;-80
2023/09/11 12:14:56;;;;;;;;;;;;;;;28.25;59.35;101216.94;5037383;28;1074;-80
2023/09/11 12:17:21;;;;;;;;;;;;;;;28.28;58.39;101211.16;5027522;28;1598;-79
2023/09/11 12:19:46;;;;;;;;;;;;;;;28.36;58.62;101218.03;5027182;28;1338;-80
2023/09/11 12:22:12;;;;;;;;;;;;;;;28.40;57.96;101220.00;5031005;28;1371;-81
2023/09/11 12:24:37;;;;;;;;;;;;;;;28.56;57.33;101219.28;5028881;28;1282;-79
2023/09/11 12:27:04;;;;;;;;;;;;;;;28.46;57.36;101221.72;5030720;28;1106;-80
2023/09/11 12:29:30;;;;;;;;;;;;;;;28.37;57.90;101224.97;5030604;28;1272;-79
2023/09/11 12:31:55;;;;;;;;;;;;;;;28.37;56.68;101215.13;5030047;28;1898;-79
2023/09/11 12:34:22;;;;;;;;;;;;;;;28.21;58.70;101213.13;5032762;28;1198;-80
2023/09/11 12:36:48;;;;;;;;;;;;;;;28.35;57.74;101217.22;5031983;28;1395;-80
2023/09/11 12:39:13;;;;;;;;;;;;;;;28.40;58.18;101214.66;5026380;28;1304;-80
2023/09/11 12:41:38;;;;;;;;;;;;;;;28.46;58.37;101207.56;5029977;28;1101;-80